Time,TemperatureF,DewpointF,PressureIn,WindDirection,WindDirectionDegrees,WindSpeedMPH,WindSpeedGustMPH,Humidity,HourlyPrecipIn,Conditions,Clouds,dailyrainin,SoftwareType,DateUTC
2013-06-25 00:01:00,67.3,65.2,29.98,North,355,0.0,0.0,93,0.00,,---,0.00,VWS V14.01,2013-06-25 04:01:00,
2013-06-25 00:03:00,67.3,65.2,29.98,North,355,0.0,0.0,93,0.00,,---,0.00,VWS V14.01,2013-06-25 04:03:00,
2013-06-25 00:05:00,67.3,65.2,29.98,North,355,0.0,0.0,93,0.00,,---,0.00,VWS V14.01,2013-06-25 04:05:00,
2013-06-25 00:07:00,67.3,65.5,29.98,North,355,0.0,0.0,94,0.00,,---,0.00,VWS V14.01,2013-06-25 04:07:00,
2013-06-25 00:10:00,67.3,65.5,29.98,North,355,0.0,0.0,94,0.00,,---,0.00,VWS V14.01,2013-06-25 04:10:00,
2013-06-25 00:16:00,67.3,65.5,29.97,North,355,0.0,0.0,94,0.00,,---,0.00,VWS V14.01,2013-06-25 04:16:00,
2013-06-25 00:21:00,67.1,65.3,29.97,North,355,0.0,0.0,94,0.00,,---,0.00,VWS V14.01,2013-06-25 04:21:00,
2013-06-25 00:27:00,67.1,65.3,29.97,North,355,0.0,0.0,94,0.00,,---,0.00,VWS V14.01,2013-06-25 04:27:00,
2013-06-25 00:32:00,67.1,65.3,29.98,North,355,0.0,0.0,94,0.00,,---,0.00,VWS V14.01,2013-06-25 04:32:00,
2013-06-25 00:37:00,67.1,65.3,29.98,North,355,0.0,0.0,94,0.00,,---,0.00,VWS V14.01,2013-06-25 04:37:00,
2013-06-25 00:42:00,67.1,65.3,29.98,North,355,0.0,0.0,94,0.00,,---,0.00,VWS V14.01,2013-06-25 04:42:00,
2013-06-25 00:47:00,67.1,65.3,29.98,North,351,0.0,1.0,94,0.00,,---,0.00,VWS V14.01,2013-06-25 04:47:00,
2013-06-25 00:52:00,66.9,65.1,29.98,North,355,0.0,0.0,94,0.00,,---,0.00,VWS V14.01,2013-06-25 04:52:00,
2013-06-25 00:57:00,66.9,65.1,29.98,NNW,342,1.0,1.0,94,0.00,,---,0.00,VWS V14.01,2013-06-25 04:57:00,
2013-06-25 01:02:00,66.8,65.0,29.97,NNW,341,0.0,0.0,94,0.00,,---,0.00,VWS V14.01,2013-06-25 05:02:00,
2013-06-25 01:07:00,66.8,65.0,29.97,NNW,341,0.0,0.0,94,0.00,,---,0.00,VWS V14.01,2013-06-25 05:07:00,
2013-06-25 01:12:00,66.8,65.0,29.97,NNW,342,0.0,0.0,94,0.00,,---,0.00,VWS V14.01,2013-06-25 05:12:00,
2013-06-25 01:17:00,66.6,64.8,29.97,NNW,342,0.0,0.0,94,0.00,,---,0.00,VWS V14.01,2013-06-25 05:17:00,
2013-06-25 01:22:00,66.4,64.6,29.98,NNW,342,0.0,0.0,94,0.00,,---,0.00,VWS V14.01,2013-06-25 05:22:00,
2013-06-25 01:27:00,66.3,64.5,29.97,NNW,342,0.0,0.0,94,0.00,,---,0.00,VWS V14.01,2013-06-25 05:27:00,
2013-06-25 01:33:00,66.3,64.5,29.97,NNW,342,0.0,0.0,94,0.00,,---,0.00,VWS V14.01,2013-06-25 05:33:00,
2013-06-25 01:38:00,66.3,64.5,29.97,NNW,342,0.0,0.0,94,0.00,,---,0.00,VWS V14.01,2013-06-25 05:38:00,
2013-06-25 01:44:00,66.3,64.5,29.96,NNW,342,0.0,0.0,94,0.00,,---,0.00,VWS V14.01,2013-06-25 05:44:00,
2013-06-25 01:50:00,66.3,64.5,29.96,NNW,342,0.0,0.0,94,0.00,,---,0.00,VWS V14.01,2013-06-25 05:50:00,
2013-06-25 01:56:00,66.3,64.8,29.96,NNW,342,0.0,0.0,95,0.00,,---,0.00,VWS V14.01,2013-06-25 05:56:00,
2013-06-25 02:02:00,66.3,64.8,29.96,NNW,342,0.0,0.0,95,0.00,,---,0.00,VWS V14.01,2013-06-25 06:02:00,
2013-06-25 02:07:00,66.3,64.8,29.95,NNW,342,0.0,0.0,95,0.00,,---,0.00,VWS V14.01,2013-06-25 06:07:00,
2013-06-25 02:12:00,66.3,64.8,29.96,NNW,342,0.0,0.0,95,0.00,,---,0.00,VWS V14.01,2013-06-25 06:12:00,
2013-06-25 02:17:00,66.1,64.3,29.95,NNW,342,0.0,0.0,94,0.00,,---,0.00,VWS V14.01,2013-06-25 06:17:00,
2013-06-25 02:22:00,66.0,64.2,29.95,NNW,342,0.0,0.0,94,0.00,,---,0.00,VWS V14.01,2013-06-25 06:22:00,
2013-06-25 02:27:00,65.8,64.0,29.95,NNW,342,0.0,0.0,94,0.00,,---,0.00,VWS V14.01,2013-06-25 06:27:00,
2013-06-25 02:32:00,65.8,64.3,29.95,NNW,342,0.0,0.0,95,0.00,,---,0.00,VWS V14.01,2013-06-25 06:32:00,
2013-06-25 02:37:00,65.5,63.7,29.95,NNW,342,0.0,0.0,94,0.00,,---,0.00,VWS V14.01,2013-06-25 06:37:00,
2013-06-25 02:42:00,65.2,63.4,29.95,NNW,342,0.0,0.0,94,0.00,,---,0.00,VWS V14.01,2013-06-25 06:42:00,
2013-06-25 02:47:00,65.2,63.4,29.95,NNW,342,0.0,0.0,94,0.00,,---,0.00,VWS V14.01,2013-06-25 06:47:00,
2013-06-25 02:52:00,65.2,63.7,29.95,NNW,342,0.0,0.0,95,0.00,,---,0.00,VWS V14.01,2013-06-25 06:52:00,
2013-06-25 02:57:00,65.2,63.7,29.95,NNW,342,0.0,0.0,95,0.00,,---,0.00,VWS V14.01,2013-06-25 06:57:00,
2013-06-25 03:02:00,65.2,63.7,29.95,NNW,342,0.0,0.0,95,0.00,,---,0.00,VWS V14.01,2013-06-25 07:02:00,
2013-06-25 03:07:00,65.2,63.7,29.94,NNW,342,0.0,0.0,95,0.00,,---,0.00,VWS V14.01,2013-06-25 07:07:00,
2013-06-25 03:12:00,65.2,63.7,29.94,NNW,342,0.0,0.0,95,0.00,,---,0.00,VWS V14.01,2013-06-25 07:12:00,
2013-06-25 03:18:00,65.0,63.5,29.94,NNW,342,0.0,0.0,95,0.00,,---,0.00,VWS V14.01,2013-06-25 07:18:00,
2013-06-25 03:23:00,65.0,63.5,29.94,NNW,342,0.0,0.0,95,0.00,,---,0.00,VWS V14.01,2013-06-25 07:23:00,
2013-06-25 03:28:00,65.0,63.5,29.94,NNW,342,0.0,0.0,95,0.00,,---,0.00,VWS V14.01,2013-06-25 07:28:00,
2013-06-25 03:33:00,64.8,63.3,29.93,NNW,342,0.0,0.0,95,0.00,,---,0.00,VWS V14.01,2013-06-25 07:33:00,
2013-06-25 03:38:00,64.8,63.3,29.93,NNW,342,0.0,0.0,95,0.00,,---,0.00,VWS V14.01,2013-06-25 07:38:00,
2013-06-25 03:43:00,64.8,63.3,29.93,NNW,342,0.0,0.0,95,0.00,,---,0.00,VWS V14.01,2013-06-25 07:43:00,
2013-06-25 03:48:00,64.8,63.3,29.94,NNW,342,0.0,0.0,95,0.00,,---,0.00,VWS V14.01,2013-06-25 07:48:00,
2013-06-25 03:53:00,64.8,63.3,29.94,NNW,342,0.0,0.0,95,0.00,,---,0.00,VWS V14.01,2013-06-25 07:53:00,
2013-06-25 03:59:00,64.8,63.3,29.94,NNW,342,0.0,0.0,95,0.00,,---,0.00,VWS V14.01,2013-06-25 07:59:00,
2013-06-25 04:04:00,64.8,63.3,29.93,NNW,342,0.0,0.0,95,0.00,,---,0.00,VWS V14.01,2013-06-25 08:04:00,
2013-06-25 04:09:00,64.7,63.2,29.93,NNW,342,0.0,0.0,95,0.00,,---,0.00,VWS V14.01,2013-06-25 08:09:00,
2013-06-25 04:14:00,64.7,63.2,29.93,NNW,342,0.0,0.0,95,0.00,,---,0.00,VWS V14.01,2013-06-25 08:14:00,
2013-06-25 04:19:00,64.5,63.0,29.93,NNW,342,0.0,0.0,95,0.00,,---,0.00,VWS V14.01,2013-06-25 08:19:00,
2013-06-25 04:25:00,64.5,63.0,29.93,NNW,342,0.0,0.0,95,0.00,,---,0.00,VWS V14.01,2013-06-25 08:25:00,
2013-06-25 04:30:00,64.3,62.8,29.93,NNW,342,0.0,0.0,95,0.00,,---,0.00,VWS V14.01,2013-06-25 08:30:00,
2013-06-25 04:36:00,64.3,62.8,29.93,NNW,342,0.0,0.0,95,0.00,,---,0.00,VWS V14.01,2013-06-25 08:36:00,
2013-06-25 04:41:00,64.2,62.7,29.94,NNW,342,0.0,0.0,95,0.00,,---,0.00,VWS V14.01,2013-06-25 08:41:00,
2013-06-25 04:46:00,64.2,62.7,29.94,NNW,342,0.0,0.0,95,0.00,,---,0.00,VWS V14.01,2013-06-25 08:46:00,
2013-06-25 04:51:00,64.0,62.5,29.94,NNW,342,0.0,0.0,95,0.00,,---,0.00,VWS V14.01,2013-06-25 08:51:00,
2013-06-25 04:56:00,64.0,62.5,29.93,NNW,342,0.0,0.0,95,0.00,,---,0.00,VWS V14.01,2013-06-25 08:56:00,
2013-06-25 05:01:00,64.2,63.0,29.93,NNW,342,0.0,0.0,96,0.00,,---,0.00,VWS V14.01,2013-06-25 09:01:00,
2013-06-25 05:07:00,64.2,63.0,29.93,NNW,342,0.0,0.0,96,0.00,,---,0.00,VWS V14.01,2013-06-25 09:07:00,
2013-06-25 05:12:00,64.3,63.1,29.93,NNW,342,0.0,0.0,96,0.00,,---,0.00,VWS V14.01,2013-06-25 09:12:00,
2013-06-25 05:17:00,64.5,63.3,29.93,NNW,342,0.0,0.0,96,0.00,,---,0.00,VWS V14.01,2013-06-25 09:17:00,
2013-06-25 05:22:00,64.5,63.3,29.93,NNW,342,0.0,0.0,96,0.00,,---,0.00,VWS V14.01,2013-06-25 09:22:00,
2013-06-25 05:27:00,64.7,63.5,29.93,NNW,342,0.0,0.0,96,0.00,,---,0.00,VWS V14.01,2013-06-25 09:27:00,
2013-06-25 05:32:00,64.7,63.5,29.93,NNW,342,0.0,0.0,96,0.00,,---,0.00,VWS V14.01,2013-06-25 09:32:00,
2013-06-25 05:38:00,64.8,63.6,29.94,NNW,342,0.0,0.0,96,0.00,,---,0.00,VWS V14.01,2013-06-25 09:38:00,
2013-06-25 05:43:00,64.8,63.6,29.94,NNW,342,0.0,0.0,96,0.00,,---,0.00,VWS V14.01,2013-06-25 09:43:00,
2013-06-25 05:48:00,64.8,63.6,29.94,NNW,342,0.0,0.0,96,0.00,,---,0.00,VWS V14.01,2013-06-25 09:48:00,
2013-06-25 05:53:00,65.0,63.8,29.94,NNW,342,0.0,0.0,96,0.00,,---,0.00,VWS V14.01,2013-06-25 09:53:00,
2013-06-25 05:58:00,65.0,63.8,29.94,NNW,342,0.0,0.0,96,0.00,,---,0.00,VWS V14.01,2013-06-25 09:58:00,
2013-06-25 06:03:00,65.0,63.8,29.94,NNW,342,0.0,0.0,96,0.00,,---,0.00,VWS V14.01,2013-06-25 10:03:00,
2013-06-25 06:08:00,65.2,64.0,29.94,NNW,342,0.0,0.0,96,0.00,,---,0.00,VWS V14.01,2013-06-25 10:08:00,
2013-06-25 06:13:00,65.0,63.8,29.94,NNW,342,0.0,0.0,96,0.00,,---,0.00,VWS V14.01,2013-06-25 10:13:00,
2013-06-25 06:18:00,65.0,63.8,29.94,NNW,342,0.0,0.0,96,0.00,,---,0.00,VWS V14.01,2013-06-25 10:18:00,
2013-06-25 06:23:00,64.8,63.6,29.94,NNW,342,0.0,0.0,96,0.00,,---,0.00,VWS V14.01,2013-06-25 10:23:00,
2013-06-25 06:29:00,64.7,63.5,29.94,NNW,342,0.0,0.0,96,0.00,,---,0.00,VWS V14.01,2013-06-25 10:29:00,
2013-06-25 06:34:00,64.7,63.5,29.94,NNW,342,0.0,0.0,96,0.00,,---,0.00,VWS V14.01,2013-06-25 10:34:00,
2013-06-25 06:40:00,64.7,63.5,29.94,NNW,342,0.0,0.0,96,0.00,,---,0.00,VWS V14.01,2013-06-25 10:40:00,
2013-06-25 06:46:00,64.7,63.5,29.93,NNW,342,0.0,0.0,96,0.00,,---,0.00,VWS V14.01,2013-06-25 10:46:00,
2013-06-25 06:51:00,64.7,63.5,29.93,NNW,342,0.0,0.0,96,0.00,,---,0.00,VWS V14.01,2013-06-25 10:51:00,
2013-06-25 06:56:00,64.8,63.6,29.94,NNW,342,0.0,0.0,96,0.00,,---,0.00,VWS V14.01,2013-06-25 10:56:00,
2013-06-25 07:02:00,65.0,63.8,29.94,NNW,342,0.0,0.0,96,0.00,,---,0.00,VWS V14.01,2013-06-25 11:02:00,
2013-06-25 07:08:00,65.0,63.8,29.94,NNW,342,0.0,0.0,96,0.00,,---,0.00,VWS V14.01,2013-06-25 11:08:00,
2013-06-25 07:13:00,65.2,64.0,29.94,NNW,342,0.0,0.0,96,0.00,,---,0.00,VWS V14.01,2013-06-25 11:13:00,
2013-06-25 07:18:00,65.3,64.1,29.93,NNW,342,0.0,0.0,96,0.00,,---,0.00,VWS V14.01,2013-06-25 11:18:00,
2013-06-25 07:24:00,65.6,64.4,29.93,NNW,342,0.0,0.0,96,0.00,,---,0.00,VWS V14.01,2013-06-25 11:24:00,
2013-06-25 07:30:00,65.8,64.6,29.93,NNW,342,0.0,0.0,96,0.00,,---,0.00,VWS V14.01,2013-06-25 11:30:00,
2013-06-25 07:35:00,66.1,64.9,29.93,NNW,342,0.0,0.0,96,0.00,,---,0.00,VWS V14.01,2013-06-25 11:35:00,
2013-06-25 07:40:00,66.3,65.1,29.93,NNW,342,0.0,0.0,96,0.00,,---,0.00,VWS V14.01,2013-06-25 11:40:00,
2013-06-25 07:45:00,66.6,65.7,29.93,NNW,342,0.0,0.0,97,0.00,,---,0.00,VWS V14.01,2013-06-25 11:45:00,
2013-06-25 07:50:00,66.9,66.0,29.93,NNW,342,0.0,0.0,97,0.00,,---,0.00,VWS V14.01,2013-06-25 11:50:00,
2013-06-25 07:56:00,67.3,66.4,29.93,NNW,342,0.0,0.0,97,0.00,,---,0.00,VWS V14.01,2013-06-25 11:56:00,
2013-06-25 08:01:00,67.4,66.5,29.93,NNW,342,0.0,0.0,97,0.00,,---,0.00,VWS V14.01,2013-06-25 12:01:00,
2013-06-25 08:06:00,67.8,66.9,29.93,NNW,342,0.0,0.0,97,0.00,,---,0.00,VWS V14.01,2013-06-25 12:06:00,
2013-06-25 08:11:00,68.1,67.2,29.93,NNW,342,0.0,0.0,97,0.00,,---,0.00,VWS V14.01,2013-06-25 12:11:00,
2013-06-25 08:17:00,68.4,67.5,29.93,NNW,342,0.0,0.0,97,0.00,,---,0.00,VWS V14.01,2013-06-25 12:17:00,
2013-06-25 08:22:00,68.8,67.9,29.93,NNW,342,0.0,0.0,97,0.00,,---,0.00,VWS V14.01,2013-06-25 12:22:00,
2013-06-25 08:27:00,68.9,68.0,29.92,NNW,342,0.0,0.0,97,0.00,,---,0.00,VWS V14.01,2013-06-25 12:27:00,
2013-06-25 08:33:00,69.4,68.5,29.92,NNW,342,0.0,0.0,97,0.00,,---,0.00,VWS V14.01,2013-06-25 12:33:00,
2013-06-25 08:38:00,69.6,68.7,29.93,NNW,342,0.0,0.0,97,0.00,,---,0.00,VWS V14.01,2013-06-25 12:38:00,
2013-06-25 08:43:00,69.9,69.0,29.93,NNW,342,0.0,0.0,97,0.00,,---,0.00,VWS V14.01,2013-06-25 12:43:00,
2013-06-25 08:48:00,70.3,69.4,29.93,NNW,342,0.0,0.0,97,0.00,,---,0.00,VWS V14.01,2013-06-25 12:48:00,
2013-06-25 08:54:00,70.6,69.7,29.93,NNW,342,0.0,0.0,97,0.00,,---,0.00,VWS V14.01,2013-06-25 12:54:00,
2013-06-25 08:59:00,71.3,70.4,29.93,NNW,342,0.0,0.0,97,0.00,,---,0.00,VWS V14.01,2013-06-25 12:59:00,
2013-06-25 09:04:00,71.6,70.7,29.93,NNW,342,0.0,0.0,97,0.00,,---,0.00,VWS V14.01,2013-06-25 13:04:00,
2013-06-25 09:09:00,72.1,70.9,29.93,NNW,342,0.0,0.0,96,0.00,,---,0.00,VWS V14.01,2013-06-25 13:09:00,
2013-06-25 09:14:00,72.3,71.1,29.93,NNW,342,0.0,0.0,96,0.00,,---,0.00,VWS V14.01,2013-06-25 13:14:00,
2013-06-25 09:19:00,72.8,71.6,29.93,NNW,342,0.0,0.0,96,0.00,,---,0.00,VWS V14.01,2013-06-25 13:19:00,
2013-06-25 09:25:00,73.3,71.8,29.93,NNW,342,0.0,0.0,95,0.00,,---,0.00,VWS V14.01,2013-06-25 13:25:00,
2013-06-25 09:30:00,73.7,71.9,29.92,NNW,342,0.0,0.0,94,0.00,,---,0.00,VWS V14.01,2013-06-25 13:30:00,
2013-06-25 09:36:00,74.4,71.6,29.92,NNW,342,0.0,0.0,91,0.00,,---,0.00,VWS V14.01,2013-06-25 13:36:00,
2013-06-25 09:41:00,74.9,71.1,29.92,NNW,342,0.0,0.0,88,0.00,,---,0.00,VWS V14.01,2013-06-25 13:41:00,
2013-06-25 09:47:00,75.6,71.5,29.92,NNW,342,0.0,0.0,87,0.00,,---,0.00,VWS V14.01,2013-06-25 13:47:00,
2013-06-25 09:52:00,76.0,70.5,29.92,NNW,342,0.0,0.0,83,0.00,,---,0.00,VWS V14.01,2013-06-25 13:52:00,
2013-06-25 09:57:00,76.7,70.4,29.92,NNW,342,0.0,0.0,81,0.00,,---,0.00,VWS V14.01,2013-06-25 13:57:00,
2013-06-25 10:02:00,77.2,70.6,29.92,NNW,342,0.0,0.0,80,0.00,,---,0.00,VWS V14.01,2013-06-25 14:02:00,
2013-06-25 10:07:00,77.7,71.0,29.92,NNW,342,0.0,0.0,80,0.00,,---,0.00,VWS V14.01,2013-06-25 14:07:00,
2013-06-25 10:12:00,78.1,70.3,29.92,WSW,249,0.0,0.0,77,0.00,,---,0.00,VWS V14.01,2013-06-25 14:12:00,
2013-06-25 10:17:00,78.3,70.5,29.92,WSW,249,0.0,0.0,77,0.00,,---,0.00,VWS V14.01,2013-06-25 14:17:00,
2013-06-25 10:22:00,78.5,69.5,29.92,WSW,249,0.0,0.0,74,0.00,,---,0.00,VWS V14.01,2013-06-25 14:22:00,
2013-06-25 10:28:00,79.0,70.4,29.92,WSW,249,0.0,1.0,75,0.00,,---,0.00,VWS V14.01,2013-06-25 14:28:00,
2013-06-25 10:33:00,79.6,71.4,29.92,WSW,249,0.0,0.0,76,0.00,,---,0.00,VWS V14.01,2013-06-25 14:33:00,
2013-06-25 10:38:00,80.1,72.2,29.92,WSW,249,0.0,0.0,77,0.00,,---,0.00,VWS V14.01,2013-06-25 14:38:00,
2013-06-25 10:44:00,80.9,71.8,29.92,WSW,249,0.0,0.0,74,0.00,,---,0.00,VWS V14.01,2013-06-25 14:44:00,
2013-06-25 10:49:00,81.2,70.9,29.92,WSW,249,0.0,0.0,71,0.00,,---,0.00,VWS V14.01,2013-06-25 14:49:00,
2013-06-25 10:54:00,81.6,70.9,29.92,WSW,249,0.0,0.0,70,0.00,,---,0.00,VWS V14.01,2013-06-25 14:54:00,
2013-06-25 10:59:00,82.0,71.7,29.92,WSW,249,0.0,0.0,71,0.00,,---,0.00,VWS V14.01,2013-06-25 14:59:00,
2013-06-25 11:05:00,82.6,71.4,29.92,WSW,249,0.0,0.0,69,0.00,,---,0.00,VWS V14.01,2013-06-25 15:05:00,
2013-06-25 11:10:00,82.8,69.8,29.92,WSW,249,0.0,0.0,65,0.00,,---,0.00,VWS V14.01,2013-06-25 15:10:00,
2013-06-25 11:15:00,83.4,72.6,29.92,WSW,249,0.0,0.0,70,0.00,,---,0.00,VWS V14.01,2013-06-25 15:15:00,
2013-06-25 11:20:00,83.6,71.1,29.91,WNW,282,0.0,0.0,66,0.00,,---,0.00,VWS V14.01,2013-06-25 15:20:00,
2013-06-25 11:25:00,83.6,69.7,29.91,West,281,0.0,1.0,63,0.00,,---,0.00,VWS V14.01,2013-06-25 15:25:00,
2013-06-25 11:31:00,83.8,69.4,29.91,West,281,0.0,0.0,62,0.00,,---,0.00,VWS V14.01,2013-06-25 15:31:00,
2013-06-25 11:37:00,84.3,69.4,29.91,West,279,1.0,2.0,61,0.00,,---,0.00,VWS V14.01,2013-06-25 15:37:00,
2013-06-25 11:42:00,84.7,70.2,29.91,West,279,0.0,1.0,62,0.00,,---,0.00,VWS V14.01,2013-06-25 15:42:00,
2013-06-25 11:47:00,84.7,69.3,29.91,West,279,0.0,2.0,60,0.00,,---,0.00,VWS V14.01,2013-06-25 15:47:00,
2013-06-25 11:52:00,84.9,68.5,29.91,West,279,0.0,1.0,58,0.00,,---,0.00,VWS V14.01,2013-06-25 15:52:00,
2013-06-25 11:57:00,84.9,68.0,29.91,WSW,251,0.0,4.0,57,0.00,,---,0.00,VWS V14.01,2013-06-25 15:57:00,
2013-06-25 12:03:00,85.1,69.2,29.91,WSW,247,0.0,0.0,59,0.00,,---,0.00,VWS V14.01,2013-06-25 16:03:00,
2013-06-25 12:08:00,85.3,68.3,29.91,SW,227,0.0,3.0,57,0.00,,---,0.00,VWS V14.01,2013-06-25 16:08:00,
2013-06-25 12:14:00,85.5,68.5,29.91,SW,227,0.0,0.0,57,0.00,,---,0.00,VWS V14.01,2013-06-25 16:14:00,
2013-06-25 12:19:00,86.1,70.1,29.90,SW,227,0.0,0.0,59,0.00,,---,0.00,VWS V14.01,2013-06-25 16:19:00,
2013-06-25 12:24:00,86.7,69.1,29.90,SW,227,0.0,0.0,56,0.00,,---,0.00,VWS V14.01,2013-06-25 16:24:00,
2013-06-25 12:29:00,87.4,68.7,29.90,SW,227,0.0,0.0,54,0.00,,---,0.00,VWS V14.01,2013-06-25 16:29:00,
2013-06-25 12:34:00,87.6,68.4,29.90,SW,231,1.0,1.0,53,0.00,,---,0.00,VWS V14.01,2013-06-25 16:34:00,
2013-06-25 12:39:00,87.8,68.6,29.90,SW,231,0.0,0.0,53,0.00,,---,0.00,VWS V14.01,2013-06-25 16:39:00,
2013-06-25 12:44:00,87.4,68.2,29.89,SW,231,0.0,0.0,53,0.00,,---,0.00,VWS V14.01,2013-06-25 16:44:00,
2013-06-25 12:49:00,87.2,67.4,29.89,WSW,244,0.0,2.0,52,0.00,,---,0.00,VWS V14.01,2013-06-25 16:49:00,
2013-06-25 12:55:00,87.0,66.7,29.89,WSW,244,0.0,0.0,51,0.00,,---,0.00,VWS V14.01,2013-06-25 16:55:00,
2013-06-25 13:00:00,87.2,69.1,29.88,WSW,244,0.0,0.0,55,0.00,,---,0.00,VWS V14.01,2013-06-25 17:00:00,
2013-06-25 13:05:00,87.2,66.3,29.88,WSW,244,0.0,1.0,50,0.00,,---,0.00,VWS V14.01,2013-06-25 17:05:00,
2013-06-25 13:10:00,87.2,66.3,29.88,WSW,244,0.0,1.0,50,0.00,,---,0.00,VWS V14.01,2013-06-25 17:10:00,
2013-06-25 13:15:00,87.6,68.4,29.88,WSW,244,0.0,0.0,53,0.00,,---,0.00,VWS V14.01,2013-06-25 17:15:00,
2013-06-25 13:20:00,87.6,66.1,29.88,WSW,240,1.0,1.0,49,0.00,,---,0.00,VWS V14.01,2013-06-25 17:20:00,
2013-06-25 13:26:00,87.4,65.9,29.88,WSW,238,1.0,3.0,49,0.00,,---,0.00,VWS V14.01,2013-06-25 17:26:00,
2013-06-25 13:31:00,87.4,68.2,29.87,WSW,238,0.0,2.0,53,0.00,,---,0.00,VWS V14.01,2013-06-25 17:31:00,
2013-06-25 13:37:00,87.6,66.7,29.87,WSW,238,0.0,0.0,50,0.00,,---,0.00,VWS V14.01,2013-06-25 17:37:00,
2013-06-25 13:42:00,87.6,67.8,29.87,WSW,238,0.0,0.0,52,0.00,,---,0.00,VWS V14.01,2013-06-25 17:42:00,
2013-06-25 13:47:00,87.8,68.6,29.86,WNW,286,0.0,1.0,53,0.00,,---,0.00,VWS V14.01,2013-06-25 17:47:00,
2013-06-25 13:52:00,88.0,67.1,29.86,SW,231,2.0,3.0,50,0.00,,---,0.00,VWS V14.01,2013-06-25 17:52:00,
2013-06-25 13:57:00,87.8,66.9,29.86,SW,231,0.0,1.0,50,0.00,,---,0.00,VWS V14.01,2013-06-25 17:57:00,
2013-06-25 14:02:00,87.6,67.2,29.86,SW,231,0.0,1.0,51,0.00,,---,0.00,VWS V14.01,2013-06-25 18:02:00,
2013-06-25 14:07:00,87.8,67.4,29.86,SW,231,0.0,1.0,51,0.00,,---,0.00,VWS V14.01,2013-06-25 18:07:00,
2013-06-25 14:12:00,88.4,69.1,29.86,West,263,0.0,0.0,53,0.00,,---,0.00,VWS V14.01,2013-06-25 18:12:00,
2013-06-25 14:17:00,88.4,68.0,29.86,West,263,1.0,2.0,51,0.00,,---,0.00,VWS V14.01,2013-06-25 18:17:00,
2013-06-25 14:22:00,88.2,67.2,29.86,SW,225,1.0,2.0,50,0.00,,---,0.00,VWS V14.01,2013-06-25 18:22:00,
2013-06-25 14:27:00,88.4,68.6,29.85,SW,220,2.0,2.0,52,0.00,,---,0.00,VWS V14.01,2013-06-25 18:27:00,
2013-06-25 14:33:00,88.2,66.7,29.85,WSW,247,0.0,0.0,49,0.00,,---,0.00,VWS V14.01,2013-06-25 18:33:00,
2013-06-25 14:38:00,87.6,66.7,29.85,WSW,246,0.0,0.0,50,0.00,,---,0.00,VWS V14.01,2013-06-25 18:38:00,
2013-06-25 14:43:00,86.5,67.9,29.85,WSW,247,0.0,1.0,54,0.00,,---,0.00,VWS V14.01,2013-06-25 18:43:00,
2013-06-25 14:49:00,86.1,69.1,29.85,South,190,0.0,0.0,57,0.00,,---,0.00,VWS V14.01,2013-06-25 18:49:00,
2013-06-25 14:55:00,85.9,69.9,29.84,South,190,0.0,0.0,59,0.00,,---,0.00,VWS V14.01,2013-06-25 18:55:00,
2013-06-25 15:00:00,86.1,69.6,29.84,SE,146,0.0,1.0,58,0.00,,---,0.00,VWS V14.01,2013-06-25 19:00:00,
2013-06-25 15:05:00,86.7,69.7,29.84,SSE,166,0.0,1.0,57,0.00,,---,0.00,VWS V14.01,2013-06-25 19:05:00,
2013-06-25 15:10:00,87.4,68.2,29.83,WSW,244,2.0,3.0,53,0.00,,---,0.00,VWS V14.01,2013-06-25 19:10:00,
2013-06-25 15:15:00,87.6,69.4,29.83,SSE,167,0.0,1.0,55,0.00,,---,0.00,VWS V14.01,2013-06-25 19:15:00,
2013-06-25 15:20:00,88.0,68.7,29.83,WSW,244,1.0,3.0,53,0.00,,---,0.00,VWS V14.01,2013-06-25 19:20:00,
2013-06-25 15:25:00,88.0,68.7,29.83,WSW,242,1.0,1.0,53,0.00,,---,0.00,VWS V14.01,2013-06-25 19:25:00,
2013-06-25 15:30:00,88.0,67.6,29.82,WSW,254,0.0,0.0,51,0.00,,---,0.00,VWS V14.01,2013-06-25 19:30:00,
2013-06-25 15:36:00,87.6,67.2,29.82,WSW,254,3.0,3.0,51,0.00,,---,0.00,VWS V14.01,2013-06-25 19:36:00,
2013-06-25 15:41:00,87.4,69.3,29.82,WSW,254,0.0,0.0,55,0.00,,---,0.00,VWS V14.01,2013-06-25 19:41:00,
2013-06-25 15:46:00,86.7,69.1,29.82,WSW,254,0.0,0.0,56,0.00,,---,0.00,VWS V14.01,2013-06-25 19:46:00,
2013-06-25 15:51:00,86.7,68.1,29.81,WNW,284,0.0,5.0,54,0.00,,---,0.00,VWS V14.01,2013-06-25 19:51:00,
2013-06-25 15:56:00,87.4,69.3,29.81,West,269,0.0,3.0,55,0.00,,---,0.00,VWS V14.01,2013-06-25 19:56:00,
2013-06-25 16:01:00,87.8,69.1,29.81,SSW,209,1.0,3.0,54,0.00,,---,0.00,VWS V14.01,2013-06-25 20:01:00,
2013-06-25 16:06:00,88.2,68.4,29.80,SW,234,0.0,1.0,52,0.00,,---,0.00,VWS V14.01,2013-06-25 20:06:00,
2013-06-25 16:11:00,88.4,66.8,29.80,WSW,248,0.0,3.0,49,0.00,,---,0.00,VWS V14.01,2013-06-25 20:11:00,
2013-06-25 16:17:00,88.0,65.3,29.80,WSW,244,0.0,3.0,47,0.00,,---,0.00,VWS V14.01,2013-06-25 20:17:00,
2013-06-25 16:22:00,88.2,66.7,29.80,WSW,244,0.0,1.0,49,0.00,,---,0.00,VWS V14.01,2013-06-25 20:22:00,
2013-06-25 16:27:00,88.4,66.8,29.80,WSW,251,2.0,4.0,49,0.00,,---,0.00,VWS V14.01,2013-06-25 20:27:00,
2013-06-25 16:32:00,88.2,66.1,29.80,WSW,254,0.0,3.0,48,0.00,,---,0.00,VWS V14.01,2013-06-25 20:32:00,
2013-06-25 16:37:00,88.2,66.1,29.80,WSW,250,0.0,1.0,48,0.00,,---,0.00,VWS V14.01,2013-06-25 20:37:00,
2013-06-25 16:42:00,88.0,66.5,29.80,SW,227,2.0,6.0,49,0.00,,---,0.00,VWS V14.01,2013-06-25 20:42:00,
2013-06-25 16:47:00,88.0,66.5,29.79,WSW,252,0.0,0.0,49,0.00,,---,0.00,VWS V14.01,2013-06-25 20:47:00,
2013-06-25 16:52:00,88.4,69.1,29.79,WSW,252,0.0,1.0,53,0.00,,---,0.00,VWS V14.01,2013-06-25 20:52:00,
2013-06-25 16:57:00,88.4,66.8,29.79,WSW,246,2.0,7.0,49,0.00,,---,0.00,VWS V14.01,2013-06-25 20:57:00,
2013-06-25 17:02:00,88.0,66.5,29.79,West,259,1.0,1.0,49,0.00,,---,0.00,VWS V14.01,2013-06-25 21:02:00,
2013-06-25 17:07:00,87.8,68.6,29.78,WSW,242,0.0,1.0,53,0.00,,---,0.00,VWS V14.01,2013-06-25 21:07:00,
2013-06-25 17:12:00,87.6,67.8,29.78,WSW,242,0.0,0.0,52,0.00,,---,0.00,VWS V14.01,2013-06-25 21:12:00,
2013-06-25 17:17:00,87.0,66.7,29.78,West,259,0.0,1.0,51,0.00,,---,0.00,VWS V14.01,2013-06-25 21:17:00,
2013-06-25 17:22:00,86.3,66.1,29.78,WSW,254,0.0,3.0,51,0.00,,---,0.00,VWS V14.01,2013-06-25 21:22:00,
2013-06-25 17:27:00,85.9,66.2,29.78,WSW,252,1.0,2.0,52,0.00,,---,0.00,VWS V14.01,2013-06-25 21:27:00,
2013-06-25 17:33:00,85.7,66.6,29.79,West,265,1.0,5.0,53,0.00,,---,0.00,VWS V14.01,2013-06-25 21:33:00,
2013-06-25 17:38:00,85.3,66.2,29.79,SW,235,1.0,5.0,53,0.00,,---,0.00,VWS V14.01,2013-06-25 21:38:00,
2013-06-25 17:43:00,84.9,66.9,29.79,SW,235,0.0,3.0,55,0.00,,---,0.00,VWS V14.01,2013-06-25 21:43:00,
2013-06-25 17:49:00,84.5,66.6,29.79,WSW,249,2.0,3.0,55,0.00,,---,0.00,VWS V14.01,2013-06-25 21:49:00,
2013-06-25 17:54:00,84.3,66.9,29.79,WSW,249,1.0,2.0,56,0.00,,---,0.00,VWS V14.01,2013-06-25 21:54:00,
2013-06-25 17:59:00,84.1,67.7,29.79,WSW,249,0.0,1.0,58,0.00,,---,0.00,VWS V14.01,2013-06-25 21:59:00,
2013-06-25 18:04:00,84.0,67.1,29.79,WSW,239,1.0,3.0,57,0.00,,---,0.00,VWS V14.01,2013-06-25 22:04:00,
2013-06-25 18:09:00,83.8,66.4,29.79,SW,233,0.0,2.0,56,0.00,,---,0.00,VWS V14.01,2013-06-25 22:09:00,
2013-06-25 18:15:00,83.8,67.5,29.78,West,264,1.0,1.0,58,0.00,,---,0.00,VWS V14.01,2013-06-25 22:15:00,
2013-06-25 18:20:00,83.6,66.8,29.79,West,264,1.0,1.0,57,0.00,,---,0.00,VWS V14.01,2013-06-25 22:20:00,
2013-06-25 18:25:00,83.6,67.3,29.78,WSW,246,0.0,1.0,58,0.00,,---,0.00,VWS V14.01,2013-06-25 22:25:00,
2013-06-25 18:31:00,83.8,68.0,29.78,WSW,246,1.0,2.0,59,0.00,,---,0.00,VWS V14.01,2013-06-25 22:31:00,
2013-06-25 18:36:00,83.8,67.5,29.77,WSW,246,0.0,3.0,58,0.00,,---,0.00,VWS V14.01,2013-06-25 22:36:00,
2013-06-25 18:41:00,84.0,67.7,29.77,WSW,246,3.0,4.0,58,0.00,,---,0.00,VWS V14.01,2013-06-25 22:41:00,
2013-06-25 18:47:00,84.1,67.7,29.77,WSW,246,1.0,2.0,58,0.00,,---,0.00,VWS V14.01,2013-06-25 22:47:00,
2013-06-25 18:52:00,84.3,67.9,29.77,WSW,246,1.0,1.0,58,0.00,,---,0.00,VWS V14.01,2013-06-25 22:52:00,
2013-06-25 18:57:00,84.1,68.2,29.77,WSW,246,2.0,2.0,59,0.00,,---,0.00,VWS V14.01,2013-06-25 22:57:00,
2013-06-25 19:02:00,84.1,67.7,29.77,WSW,246,0.0,1.0,58,0.00,,---,0.00,VWS V14.01,2013-06-25 23:02:00,
2013-06-25 19:07:00,83.8,67.5,29.77,WSW,246,3.0,3.0,58,0.00,,---,0.00,VWS V14.01,2013-06-25 23:07:00,
2013-06-25 19:12:00,83.6,66.8,29.78,WSW,246,0.0,2.0,57,0.00,,---,0.00,VWS V14.01,2013-06-25 23:12:00,
2013-06-25 19:18:00,83.2,66.9,29.78,WSW,242,0.0,2.0,58,0.00,,---,0.00,VWS V14.01,2013-06-25 23:18:00,
2013-06-25 19:23:00,83.0,66.7,29.77,WSW,242,3.0,4.0,58,0.00,,---,0.00,VWS V14.01,2013-06-25 23:23:00,
2013-06-25 19:28:00,82.8,66.5,29.77,SW,233,0.0,3.0,58,0.00,,---,0.00,VWS V14.01,2013-06-25 23:28:00,
2013-06-25 19:33:00,82.8,67.0,29.77,SW,215,3.0,3.0,59,0.00,,---,0.00,VWS V14.01,2013-06-25 23:33:00,
2013-06-25 19:38:00,82.6,66.8,29.77,SW,234,0.0,1.0,59,0.00,,---,0.00,VWS V14.01,2013-06-25 23:38:00,
2013-06-25 19:43:00,82.4,66.7,29.77,SW,234,1.0,2.0,59,0.00,,---,0.00,VWS V14.01,2013-06-25 23:43:00,
2013-06-25 19:48:00,82.2,66.5,29.77,WSW,239,2.0,5.0,59,0.00,,---,0.00,VWS V14.01,2013-06-25 23:48:00,
2013-06-25 19:53:00,82.2,66.9,29.77,WSW,239,0.0,2.0,60,0.00,,---,0.00,VWS V14.01,2013-06-25 23:53:00,
2013-06-25 19:58:00,82.0,66.8,29.77,WSW,239,0.0,0.0,60,0.00,,---,0.00,VWS V14.01,2013-06-25 23:58:00,
2013-06-25 20:03:00,81.8,66.6,29.77,WSW,239,0.0,1.0,60,0.00,,---,0.00,VWS V14.01,2013-06-26 00:03:00,
2013-06-25 20:08:00,81.8,66.6,29.77,WSW,239,0.0,0.0,60,0.00,,---,0.00,VWS V14.01,2013-06-26 00:08:00,
2013-06-25 20:13:00,81.8,67.1,29.77,WSW,239,0.0,0.0,61,0.00,,---,0.00,VWS V14.01,2013-06-26 00:13:00,
2013-06-25 20:18:00,81.6,67.3,29.77,WSW,239,1.0,2.0,62,0.00,,---,0.00,VWS V14.01,2013-06-26 00:18:00,
2013-06-25 20:23:00,81.4,66.7,29.77,WSW,239,2.0,2.0,61,0.00,,---,0.00,VWS V14.01,2013-06-26 00:23:00,
2013-06-25 20:28:00,81.2,66.9,29.77,WSW,239,2.0,3.0,62,0.00,,---,0.00,VWS V14.01,2013-06-26 00:28:00,
2013-06-25 20:33:00,80.9,67.1,29.77,WSW,242,0.0,1.0,63,0.00,,---,0.00,VWS V14.01,2013-06-26 00:33:00,
2013-06-25 20:38:00,80.7,66.9,29.77,WSW,242,0.0,2.0,63,0.00,,---,0.00,VWS V14.01,2013-06-26 00:38:00,
2013-06-25 20:43:00,80.7,66.9,29.77,WSW,242,0.0,0.0,63,0.00,,---,0.00,VWS V14.01,2013-06-26 00:43:00,
2013-06-25 20:48:00,80.3,67.0,29.77,WSW,242,0.0,3.0,64,0.00,,---,0.00,VWS V14.01,2013-06-26 00:48:00,
2013-06-25 20:53:00,80.3,67.0,29.78,WSW,242,0.0,0.0,64,0.00,,---,0.00,VWS V14.01,2013-06-26 00:53:00,
2013-06-25 20:58:00,80.1,67.3,29.77,WSW,242,0.0,0.0,65,0.00,,---,0.00,VWS V14.01,2013-06-26 00:58:00,
2013-06-25 21:04:00,79.9,67.1,29.78,WSW,242,0.0,2.0,65,0.00,,---,0.00,VWS V14.01,2013-06-26 01:04:00,
2013-06-25 21:09:00,79.8,67.0,29.78,WSW,242,3.0,3.0,65,0.00,,---,0.00,VWS V14.01,2013-06-26 01:09:00,
2013-06-25 21:14:00,79.8,67.0,29.78,WSW,242,0.0,0.0,65,0.00,,---,0.00,VWS V14.01,2013-06-26 01:14:00,
2013-06-25 21:19:00,79.8,67.0,29.78,WSW,242,0.0,0.0,65,0.00,,---,0.00,VWS V14.01,2013-06-26 01:19:00,
2013-06-25 21:24:00,79.6,67.2,29.78,WSW,242,0.0,1.0,66,0.00,,---,0.00,VWS V14.01,2013-06-26 01:24:00,
2013-06-25 21:29:00,79.6,67.2,29.78,WSW,242,0.0,0.0,66,0.00,,---,0.00,VWS V14.01,2013-06-26 01:29:00,
2013-06-25 21:34:00,79.4,67.1,29.78,WSW,242,0.0,1.0,66,0.00,,---,0.00,VWS V14.01,2013-06-26 01:34:00,
2013-06-25 21:39:00,79.4,67.5,29.79,WSW,242,0.0,2.0,67,0.00,,---,0.00,VWS V14.01,2013-06-26 01:39:00,
2013-06-25 21:44:00,79.4,67.5,29.79,WSW,242,0.0,1.0,67,0.00,,---,0.00,VWS V14.01,2013-06-26 01:44:00,
2013-06-25 21:49:00,79.4,67.1,29.79,WSW,242,0.0,1.0,66,0.00,,---,0.00,VWS V14.01,2013-06-26 01:49:00,
2013-06-25 21:54:00,79.2,66.9,29.79,WSW,242,1.0,1.0,66,0.00,,---,0.00,VWS V14.01,2013-06-26 01:54:00,
2013-06-25 21:59:00,79.2,66.9,29.79,WSW,242,0.0,3.0,66,0.00,,---,0.00,VWS V14.01,2013-06-26 01:59:00,
2013-06-25 22:04:00,79.2,66.9,29.79,WSW,242,0.0,3.0,66,0.00,,---,0.00,VWS V14.01,2013-06-26 02:04:00,
2013-06-25 22:09:00,79.2,66.9,29.79,WSW,242,0.0,1.0,66,0.00,,---,0.00,VWS V14.01,2013-06-26 02:09:00,
2013-06-25 22:14:00,79.4,67.1,29.79,WSW,242,1.0,2.0,66,0.00,,---,0.00,VWS V14.01,2013-06-26 02:14:00,
2013-06-25 22:19:00,79.4,66.6,29.79,SW,226,0.0,1.0,65,0.00,,---,0.00,VWS V14.01,2013-06-26 02:19:00,
2013-06-25 22:24:00,79.2,66.4,29.79,SW,227,4.0,4.0,65,0.00,,---,0.00,VWS V14.01,2013-06-26 02:24:00,
2013-06-25 22:29:00,79.2,66.4,29.79,SSW,202,3.0,4.0,65,0.00,,---,0.00,VWS V14.01,2013-06-26 02:29:00,
2013-06-25 22:34:00,79.2,66.4,29.79,WSW,247,0.0,1.0,65,0.00,,---,0.00,VWS V14.01,2013-06-26 02:34:00,
2013-06-25 22:40:00,79.2,66.4,29.79,WSW,237,0.0,2.0,65,0.00,,---,0.00,VWS V14.01,2013-06-26 02:40:00,
2013-06-25 22:46:00,79.2,66.0,29.80,WSW,242,0.0,3.0,64,0.00,,---,0.00,VWS V14.01,2013-06-26 02:46:00,
2013-06-25 22:51:00,79.2,66.0,29.80,SW,216,1.0,4.0,64,0.00,,---,0.00,VWS V14.01,2013-06-26 02:51:00,
2013-06-25 22:56:00,79.2,66.0,29.80,SW,216,1.0,2.0,64,0.00,,---,0.00,VWS V14.01,2013-06-26 02:56:00,
2013-06-25 23:01:00,79.2,66.0,29.80,SW,216,0.0,1.0,64,0.00,,---,0.00,VWS V14.01,2013-06-26 03:01:00,
2013-06-25 23:06:00,79.0,65.8,29.79,SW,227,0.0,0.0,64,0.00,,---,0.00,VWS V14.01,2013-06-26 03:06:00,
2013-06-25 23:11:00,79.0,65.8,29.79,SW,227,0.0,1.0,64,0.00,,---,0.00,VWS V14.01,2013-06-26 03:11:00,
2013-06-25 23:17:00,78.8,65.6,29.79,SW,227,0.0,0.0,64,0.00,,---,0.00,VWS V14.01,2013-06-26 03:17:00,
2013-06-25 23:22:00,78.8,65.6,29.79,SW,227,0.0,0.0,64,0.00,,---,0.00,VWS V14.01,2013-06-26 03:22:00,
2013-06-25 23:27:00,78.6,65.9,29.80,SW,227,0.0,0.0,65,0.00,,---,0.00,VWS V14.01,2013-06-26 03:27:00,
2013-06-25 23:33:00,78.5,65.8,29.80,SW,227,0.0,0.0,65,0.00,,---,0.00,VWS V14.01,2013-06-26 03:33:00,
2013-06-25 23:39:00,78.5,65.8,29.80,SW,227,0.0,0.0,65,0.00,,---,0.00,VWS V14.01,2013-06-26 03:39:00,
2013-06-25 23:44:00,78.3,65.6,29.80,SW,227,0.0,0.0,65,0.00,,---,0.00,VWS V14.01,2013-06-26 03:44:00,
2013-06-25 23:50:00,78.3,65.6,29.80,SW,227,0.0,0.0,65,0.00,,---,0.00,VWS V14.01,2013-06-26 03:50:00,
2013-06-25 23:55:00,78.1,65.4,29.79,SW,227,0.0,0.0,65,0.00,,---,0.00,VWS V14.01,2013-06-26 03:55:00,